sensor_id;sensor_type;location;lat;lon;timestamp;pressure;altitude;pressure_sealevel;temperature;humidity
12793;BME280;6460;42.684;23.260;2022-12-29T00:35:09;95514.50;;;6.11;100.00
12793;BME280;6460;42.684;23.260;2022-12-29T00:37:39;95515.16;;;6.39;100.00
12793;BME280;6460;42.684;23.260;2022-12-29T00:40:24;95523.22;;;6.48;100.00
12793;BME280;6460;42.684;23.260;2022-12-29T00:43:09;95525.44;;;6.54;100.00
12793;BME280;6460;42.684;23.260;2022-12-29T00:45:54;95530.97;;;6.58;100.00
12793;BME280;6460;42.684;23.260;2022-12-29T00:48:22;95530.50;;;6.56;100.00
12793;BME280;6460;42.684;23.260;2022-12-29T00:51:05;95531.25;;;6.48;100.00
12793;BME280;6460;42.684;23.260;2022-12-29T00:53:33;95529.69;;;6.24;100.00
12793;BME280;6460;42.684;23.260;2022-12-29T00:56:01;95526.16;;;6.15;100.00
12793;BME280;6460;42.684;23.260;2022-12-29T00:58:31;95530.66;;;6.28;100.00
12793;BME280;6460;42.684;23.260;2022-12-29T01:01:02;95527.72;;;6.16;100.00
12793;BME280;6460;42.684;23.260;2022-12-29T01:03:33;95524.22;;;6.07;100.00
12793;BME280;6460;42.684;23.260;2022-12-29T01:06:01;95519.72;;;5.94;100.00
12793;BME280;6460;42.684;23.260;2022-12-29T01:08:30;95528.88;;;6.02;100.00
12793;BME280;6460;42.684;23.260;2022-12-29T01:10:59;95519.53;;;5.91;100.00
12793;BME280;6460;42.684;23.260;2022-12-29T01:13:25;95519.84;;;5.89;100.00
12793;BME280;6460;42.684;23.260;2022-12-29T01:15:54;95519.38;;;5.87;100.00
12793;BME280;6460;42.684;23.260;2022-12-29T01:18:24;95518.59;;;5.73;100.00
12793;BME280;6460;42.684;23.260;2022-12-29T01:20:58;95516.78;;;5.82;100.00
12793;BME280;6460;42.684;23.260;2022-12-29T01:23:30;95509.56;;;5.82;100.00
12793;BME280;6460;42.684;23.260;2022-12-29T01:26:08;95512.34;;;5.77;100.00
12793;BME280;6460;42.684;23.260;2022-12-29T01:28:39;95515.09;;;5.37;100.00
12793;BME280;6460;42.684;23.260;2022-12-29T01:31:07;95508.03;;;5.68;100.00
12793;BME280;6460;42.684;23.260;2022-12-29T01:33:35;95513.66;;;5.66;100.00
12793;BME280;6460;42.684;23.260;2022-12-29T01:36:03;95499.69;;;5.83;100.00
12793;BME280;6460;42.684;23.260;2022-12-29T01:38:33;95499.78;;;5.78;100.00
12793;BME280;6460;42.684;23.260;2022-12-29T01:41:01;95491.47;;;5.93;100.00
12793;BME280;6460;42.684;23.260;2022-12-29T01:43:39;95490.13;;;6.04;100.00
12793;BME280;6460;42.684;23.260;2022-12-29T01:46:14;95491.75;;;6.14;100.00
12793;BME280;6460;42.684;23.260;2022-12-29T01:48:43;95489.94;;;6.01;100.00
12793;BME280;6460;42.684;23.260;2022-12-29T01:51:11;95481.69;;;6.11;100.00
12793;BME280;6460;42.684;23.260;2022-12-29T02:03:05;95478.38;;;6.36;100.00
12793;BME280;6460;42.684;23.260;2022-12-29T02:13:27;95476.88;;;6.44;100.00
12793;BME280;6460;42.684;23.260;2022-12-29T02:34:23;95470.28;;;6.41;100.00
12793;BME280;6460;42.684;23.260;2022-12-29T02:44:17;95490.84;;;6.41;100.00
12793;BME280;6460;42.684;23.260;2022-12-29T02:47:33;95481.50;;;6.07;100.00
12793;BME280;6460;42.684;23.260;2022-12-29T03:32:43;95453.84;;;6.03;100.00
12793;BME280;6460;42.684;23.260;2022-12-29T04:28:38;95476.25;;;5.22;100.00
12793;BME280;6460;42.684;23.260;2022-12-29T05:37:06;95513.91;;;4.34;100.00
12793;BME280;6460;42.684;23.260;2022-12-29T05:39:34;95513.56;;;4.21;100.00
12793;BME280;6460;42.684;23.260;2022-12-29T05:42:02;95517.41;;;4.61;100.00
12793;BME280;6460;42.684;23.260;2022-12-29T05:44:31;95515.63;;;4.57;100.00
12793;BME280;6460;42.684;23.260;2022-12-29T05:46:59;95522.97;;;4.33;100.00
12793;BME280;6460;42.684;23.260;2022-12-29T05:49:26;95521.31;;;4.37;100.00
12793;BME280;6460;42.684;23.260;2022-12-29T05:55:10;95520.75;;;4.67;100.00
12793;BME280;6460;42.684;23.260;2022-12-29T05:57:38;95528.34;;;4.60;100.00
12793;BME280;6460;42.684;23.260;2022-12-29T06:00:09;95527.53;;;4.46;100.00
12793;BME280;6460;42.684;23.260;2022-12-29T06:05:58;95535.44;;;4.18;100.00
12793;BME280;6460;42.684;23.260;2022-12-29T06:15:25;95537.63;;;4.76;100.00
12793;BME280;6460;42.684;23.260;2022-12-29T06:17:54;95533.13;;;4.90;100.00
12793;BME280;6460;42.684;23.260;2022-12-29T06:20:24;95531.72;;;4.93;100.00
12793;BME280;6460;42.684;23.260;2022-12-29T06:32:37;95536.47;;;5.23;100.00
12793;BME280;6460;42.684;23.260;2022-12-29T06:35:05;95526.16;;;5.44;100.00
12793;BME280;6460;42.684;23.260;2022-12-29T06:37:54;95531.94;;;5.59;100.00
12793;BME280;6460;42.684;23.260;2022-12-29T06:40:22;95536.88;;;5.66;100.00
12793;BME280;6460;42.684;23.260;2022-12-29T06:42:50;95537.13;;;5.78;100.00
12793;BME280;6460;42.684;23.260;2022-12-29T06:45:19;95542.47;;;5.78;100.00
12793;BME280;6460;42.684;23.260;2022-12-29T06:47:49;95538.72;;;5.79;100.00
12793;BME280;6460;42.684;23.260;2022-12-29T06:50:34;95536.53;;;5.81;100.00
12793;BME280;6460;42.684;23.260;2022-12-29T09:38:23;95508.28;;;8.63;100.00
12793;BME280;6460;42.684;23.260;2022-12-29T09:40:52;95502.28;;;8.66;100.00
12793;BME280;6460;42.684;23.260;2022-12-29T09:43:32;95503.63;;;8.89;100.00
12793;BME280;6460;42.684;23.260;2022-12-29T09:46:13;95504.47;;;8.72;100.00
12793;BME280;6460;42.684;23.260;2022-12-29T09:48:47;95501.72;;;8.98;100.00
12793;BME280;6460;42.684;23.260;2022-12-29T09:51:18;95497.13;;;8.98;100.00
12793;BME280;6460;42.684;23.260;2022-12-29T09:53:53;95489.31;;;9.14;100.00
12793;BME280;6460;42.684;23.260;2022-12-29T09:56:24;95484.69;;;9.23;100.00
12793;BME280;6460;42.684;23.260;2022-12-29T09:58:55;95487.88;;;9.25;100.00
12793;BME280;6460;42.684;23.260;2022-12-29T10:01:30;95484.03;;;9.35;100.00
12793;BME280;6460;42.684;23.260;2022-12-29T10:04:00;95474.53;;;9.37;100.00
12793;BME280;6460;42.684;23.260;2022-12-29T10:06:36;95479.31;;;9.52;100.00
12793;BME280;6460;42.684;23.260;2022-12-29T10:09:15;95472.91;;;9.66;100.00
12793;BME280;6460;42.684;23.260;2022-12-29T10:12:11;95476.28;;;9.54;100.00
12793;BME280;6460;42.684;23.260;2022-12-29T10:14:55;95469.09;;;9.25;100.00
12793;BME280;6460;42.684;23.260;2022-12-29T10:17:34;95472.75;;;9.41;100.00
12793;BME280;6460;42.684;23.260;2022-12-29T10:20:17;95466.28;;;9.42;100.00
12793;BME280;6460;42.684;23.260;2022-12-29T10:23:16;95458.50;;;9.91;100.00
12793;BME280;6460;42.684;23.260;2022-12-29T10:25:52;95460.63;;;9.85;100.00
12793;BME280;6460;42.684;23.260;2022-12-29T10:28:23;95468.84;;;10.01;100.00
12793;BME280;6460;42.684;23.260;2022-12-29T10:30:51;95453.66;;;10.05;100.00
12793;BME280;6460;42.684;23.260;2022-12-29T10:33:34;95455.75;;;10.20;100.00
12793;BME280;6460;42.684;23.260;2022-12-29T13:38:11;95351.22;;;12.54;70.56
12793;BME280;6460;42.684;23.260;2022-12-29T13:41:08;95353.91;;;12.54;70.08
12793;BME280;6460;42.684;23.260;2022-12-29T13:44:20;95353.91;;;12.39;70.76
12793;BME280;6460;42.684;23.260;2022-12-29T13:47:15;95346.72;;;12.27;71.66
12793;BME280;6460;42.684;23.260;2022-12-29T13:50:02;95349.81;;;12.13;72.48
12793;BME280;6460;42.684;23.260;2022-12-29T14:02:30;95351.59;;;11.66;74.79
12793;BME280;6460;42.684;23.260;2022-12-29T14:05:28;95355.44;;;11.53;75.37
12793;BME280;6460;42.684;23.260;2022-12-29T14:08:16;95348.78;;;11.62;78.11
12793;BME280;6460;42.684;23.260;2022-12-29T14:11:07;95352.59;;;11.61;81.61
12793;BME280;6460;42.684;23.260;2022-12-29T14:13:50;95363.19;;;11.54;80.30
12793;BME280;6460;42.684;23.260;2022-12-29T14:16:28;95361.63;;;11.53;90.15
12793;BME280;6460;42.684;23.260;2022-12-29T14:19:28;95355.25;;;11.46;77.93
12793;BME280;6460;42.684;23.260;2022-12-29T14:22:11;95360.34;;;11.35;77.07
12793;BME280;6460;42.684;23.260;2022-12-29T14:24:43;95375.16;;;11.17;77.75
12793;BME280;6460;42.684;23.260;2022-12-29T14:27:53;95374.97;;;11.10;78.01
12793;BME280;6460;42.684;23.260;2022-12-29T14:30:46;95374.84;;;11.06;77.89
12793;BME280;6460;42.684;23.260;2022-12-29T14:33:29;95379.09;;;10.95;78.25
12793;BME280;6460;42.684;23.260;2022-12-29T14:39:30;95380.47;;;10.89;78.71
12793;BME280;6460;42.684;23.260;2022-12-29T14:42:00;95381.91;;;10.99;78.17
12793;BME280;6460;42.684;23.260;2022-12-29T14:44:30;95386.38;;;10.95;78.38
12793;BME280;6460;42.684;23.260;2022-12-29T14:47:27;95390.44;;;10.89;78.18
12793;BME280;6460;42.684;23.260;2022-12-29T14:50:15;95388.41;;;10.74;78.90
12793;BME280;6460;42.684;23.260;2022-12-29T14:52:51;95393.56;;;10.67;79.75
12793;BME280;6460;42.684;23.260;2022-12-29T14:55:38;95393.13;;;10.52;80.04
12793;BME280;6460;42.684;23.260;2022-12-29T14:58:27;95392.28;;;10.28;80.95
12793;BME280;6460;42.684;23.260;2022-12-29T15:04:20;95391.09;;;10.04;82.79
12793;BME280;6460;42.684;23.260;2022-12-29T15:07:21;95380.41;;;9.96;82.62
12793;BME280;6460;42.684;23.260;2022-12-29T15:10:08;95383.47;;;9.74;84.77
12793;BME280;6460;42.684;23.260;2022-12-29T15:12:52;95378.97;;;9.66;85.15
12793;BME280;6460;42.684;23.260;2022-12-29T15:15:26;95377.19;;;10.35;100.00
12793;BME280;6460;42.684;23.260;2022-12-29T15:18:27;95382.81;;;10.09;100.00
12793;BME280;6460;42.684;23.260;2022-12-29T15:25:03;95377.09;;;9.25;100.00
12793;BME280;6460;42.684;23.260;2022-12-29T15:58:41;95370.47;;;9.01;88.96
12793;BME280;6460;42.684;23.260;2022-12-29T16:01:28;95371.56;;;8.80;90.35
12793;BME280;6460;42.684;23.260;2022-12-29T16:04:10;95376.31;;;8.74;91.45
12793;BME280;6460;42.684;23.260;2022-12-29T16:06:44;95370.34;;;8.98;90.77
12793;BME280;6460;42.684;23.260;2022-12-29T16:12:32;95378.88;;;8.24;93.56
12793;BME280;6460;42.684;23.260;2022-12-29T17:19:48;95404.06;;;8.23;100.00
12793;BME280;6460;42.684;23.260;2022-12-29T17:22:32;95402.66;;;8.34;100.00
12793;BME280;6460;42.684;23.260;2022-12-29T17:25:06;95395.25;;;8.31;100.00
12793;BME280;6460;42.684;23.260;2022-12-29T17:27:38;95399.66;;;8.36;100.00
12793;BME280;6460;42.684;23.260;2022-12-29T17:30:12;95401.69;;;7.50;100.00
12793;BME280;6460;42.684;23.260;2022-12-29T17:32:42;95397.38;;;8.00;100.00
12793;BME280;6460;42.684;23.260;2022-12-29T17:41:53;95399.59;;;7.81;100.00
12793;BME280;6460;42.684;23.260;2022-12-29T17:44:27;95397.78;;;8.11;100.00
12793;BME280;6460;42.684;23.260;2022-12-29T17:46:55;95393.53;;;8.18;100.00
12793;BME280;6460;42.684;23.260;2022-12-29T17:49:31;95398.28;;;8.13;100.00
12793;BME280;6460;42.684;23.260;2022-12-29T17:51:59;95396.03;;;8.23;100.00
12793;BME280;6460;42.684;23.260;2022-12-29T17:54:28;95389.44;;;8.29;100.00
12793;BME280;6460;42.684;23.260;2022-12-29T18:16:43;95377.16;;;8.11;100.00
12793;BME280;6460;42.684;23.260;2022-12-29T18:19:32;95383.88;;;7.71;100.00
12793;BME280;6460;42.684;23.260;2022-12-29T18:22:14;95387.97;;;7.17;100.00
12793;BME280;6460;42.684;23.260;2022-12-29T18:28:21;95376.31;;;8.36;100.00
12793;BME280;6460;42.684;23.260;2022-12-29T18:31:02;95403.72;;;9.09;100.00
12793;BME280;6460;42.684;23.260;2022-12-29T18:49:54;95391.59;;;8.27;100.00
12793;BME280;6460;42.684;23.260;2022-12-29T18:52:52;95385.00;;;8.33;100.00
12793;BME280;6460;42.684;23.260;2022-12-29T18:55:25;95383.84;;;8.43;100.00
12793;BME280;6460;42.684;23.260;2022-12-29T18:57:53;95382.56;;;8.49;100.00
12793;BME280;6460;42.684;23.260;2022-12-29T19:00:21;95390.06;;;8.35;100.00
12793;BME280;6460;42.684;23.260;2022-12-29T19:02:51;95380.09;;;8.44;100.00
12793;BME280;6460;42.684;23.260;2022-12-29T19:05:24;95386.88;;;8.41;100.00
12793;BME280;6460;42.684;23.260;2022-12-29T19:08:06;95386.25;;;8.27;100.00
12793;BME280;6460;42.684;23.260;2022-12-29T19:10:34;95391.78;;;8.22;100.00
12793;BME280;6460;42.684;23.260;2022-12-29T19:13:18;95381.72;;;8.11;100.00
12793;BME280;6460;42.684;23.260;2022-12-29T19:16:05;95386.56;;;8.34;100.00
12793;BME280;6460;42.684;23.260;2022-12-29T19:18:34;95384.22;;;8.24;100.00
12793;BME280;6460;42.684;23.260;2022-12-29T19:45:21;95384.47;;;7.85;100.00
12793;BME280;6460;42.684;23.260;2022-12-29T19:47:51;95391.56;;;7.89;100.00
12793;BME280;6460;42.684;23.260;2022-12-29T19:50:36;95387.75;;;7.99;100.00
12793;BME280;6460;42.684;23.260;2022-12-29T19:53:04;95388.06;;;8.06;100.00
12793;BME280;6460;42.684;23.260;2022-12-29T19:55:31;95392.97;;;7.95;100.00
12793;BME280;6460;42.684;23.260;2022-12-29T19:57:59;95396.44;;;7.87;100.00
12793;BME280;6460;42.684;23.260;2022-12-29T20:00:28;95393.00;;;7.61;100.00
12793;BME280;6460;42.684;23.260;2022-12-29T20:02:56;95390.44;;;7.82;100.00
12793;BME280;6460;42.684;23.260;2022-12-29T20:05:27;95405.72;;;8.54;100.00
12793;BME280;6460;42.684;23.260;2022-12-29T20:07:55;95410.97;;;9.09;100.00
12793;BME280;6460;42.684;23.260;2022-12-29T20:10:23;95418.53;;;8.48;100.00
12793;BME280;6460;42.684;23.260;2022-12-29T20:12:55;95405.41;;;8.55;100.00
12793;BME280;6460;42.684;23.260;2022-12-29T20:15:22;95406.22;;;8.47;100.00
12793;BME280;6460;42.684;23.260;2022-12-29T20:17:52;95401.06;;;8.25;100.00
12793;BME280;6460;42.684;23.260;2022-12-29T20:20:19;95410.13;;;8.03;100.00
12793;BME280;6460;42.684;23.260;2022-12-29T20:22:50;95400.81;;;8.09;100.00
12793;BME280;6460;42.684;23.260;2022-12-29T20:25:20;95393.88;;;8.17;100.00
12793;BME280;6460;42.684;23.260;2022-12-29T20:27:48;95403.38;;;7.63;100.00
12793;BME280;6460;42.684;23.260;2022-12-29T20:33:35;95407.16;;;7.79;100.00
12793;BME280;6460;42.684;23.260;2022-12-29T20:36:11;95404.34;;;7.67;100.00
12793;BME280;6460;42.684;23.260;2022-12-29T20:39:04;95408.56;;;7.85;100.00
12793;BME280;6460;42.684;23.260;2022-12-29T20:41:36;95407.16;;;7.79;100.00
12793;BME280;6460;42.684;23.260;2022-12-29T20:44:04;95410.16;;;7.60;100.00
12793;BME280;6460;42.684;23.260;2022-12-29T20:46:32;95406.66;;;7.85;100.00
12793;BME280;6460;42.684;23.260;2022-12-29T20:49:01;95415.50;;;7.60;100.00
12793;BME280;6460;42.684;23.260;2022-12-29T20:51:29;95420.53;;;7.53;100.00
12793;BME280;6460;42.684;23.260;2022-12-29T20:53:57;95415.50;;;7.60;100.00
12793;BME280;6460;42.684;23.260;2022-12-29T20:56:26;95413.78;;;7.56;100.00
12793;BME280;6460;42.684;23.260;2022-12-29T20:59:08;95408.72;;;7.80;100.00
12793;BME280;6460;42.684;23.260;2022-12-29T21:02:27;95412.38;;;7.32;100.00
12793;BME280;6460;42.684;23.260;2022-12-29T21:04:57;95418.44;;;6.90;100.00
12793;BME280;6460;42.684;23.260;2022-12-29T21:07:24;95416.63;;;7.33;100.00
12793;BME280;6460;42.684;23.260;2022-12-29T21:09:53;95415.19;;;7.53;100.00
12793;BME280;6460;42.684;23.260;2022-12-29T21:12:23;95416.47;;;7.64;100.00
12793;BME280;6460;42.684;23.260;2022-12-29T21:14:53;95413.16;;;7.67;100.00
12793;BME280;6460;42.684;23.260;2022-12-29T21:17:27;95407.16;;;7.79;100.00
12793;BME280;6460;42.684;23.260;2022-12-29T21:19:54;95404.66;;;7.74;100.00
12793;BME280;6460;42.684;23.260;2022-12-29T21:22:25;95409.03;;;7.87;100.00
12793;BME280;6460;42.684;23.260;2022-12-29T21:24:53;95403.22;;;7.93;100.00
12793;BME280;6460;42.684;23.260;2022-12-29T21:27:29;95411.75;;;7.61;100.00
12793;BME280;6460;42.684;23.260;2022-12-29T21:29:56;95406.38;;;7.78;100.00
12793;BME280;6460;42.684;23.260;2022-12-29T21:32:23;95409.19;;;7.90;100.00
12793;BME280;6460;42.684;23.260;2022-12-29T21:34:50;95400.41;;;7.64;100.00
12793;BME280;6460;42.684;23.260;2022-12-29T21:37:19;95397.72;;;7.38;100.00
12793;BME280;6460;42.684;23.260;2022-12-29T21:43:17;95396.16;;;7.37;100.00
12793;BME280;6460;42.684;23.260;2022-12-29T21:45:50;95386.09;;;7.69;100.00
12793;BME280;6460;42.684;23.260;2022-12-29T21:48:17;95388.59;;;7.74;100.00
12793;BME280;6460;42.684;23.260;2022-12-29T21:50:50;95385.78;;;7.62;100.00
12793;BME280;6460;42.684;23.260;2022-12-29T21:53:36;95383.84;;;7.79;100.00
12793;BME280;6460;42.684;23.260;2022-12-29T21:56:07;95386.69;;;7.83;100.00
12793;BME280;6460;42.684;23.260;2022-12-29T21:58:37;95384.97;;;7.78;100.00
12793;BME280;6460;42.684;23.260;2022-12-29T22:01:23;95388.63;;;7.65;100.00
12793;BME280;6460;42.684;23.260;2022-12-29T22:04:11;95381.97;;;7.63;100.00
12793;BME280;6460;42.684;23.260;2022-12-29T22:06:56;95379.63;;;7.61;100.00
12793;BME280;6460;42.684;23.260;2022-12-29T22:09:40;95378.06;;;7.52;100.00
12793;BME280;6460;42.684;23.260;2022-12-29T22:12:25;95381.03;;;7.67;100.00
12793;BME280;6460;42.684;23.260;2022-12-29T22:15:11;95386.25;;;7.64;100.00
12793;BME280;6460;42.684;23.260;2022-12-29T22:17:38;95380.09;;;7.63;100.00
12793;BME280;6460;42.684;23.260;2022-12-29T22:20:05;95373.81;;;7.68;100.00
12793;BME280;6460;42.684;23.260;2022-12-29T22:22:33;95368.97;;;7.53;100.00
12793;BME280;6460;42.684;23.260;2022-12-29T22:25:00;95380.28;;;7.58;100.00
12793;BME280;6460;42.684;23.260;2022-12-29T22:27:27;95370.81;;;7.61;100.00
12793;BME280;6460;42.684;23.260;2022-12-29T22:29:54;95376.63;;;7.80;100.00
12793;BME280;6460;42.684;23.260;2022-12-29T22:35:59;95378.84;;;7.61;100.00
12793;BME280;6460;42.684;23.260;2022-12-29T22:38:27;95377.75;;;7.19;100.00
12793;BME280;6460;42.684;23.260;2022-12-29T22:41:20;95380.75;;;7.52;100.00
12793;BME280;6460;42.684;23.260;2022-12-29T22:43:47;95379.47;;;7.66;100.00
12793;BME280;6460;42.684;23.260;2022-12-29T22:49:36;95376.78;;;7.75;100.00
12793;BME280;6460;42.684;23.260;2022-12-29T22:52:07;95381.06;;;7.59;100.00
12793;BME280;6460;42.684;23.260;2022-12-29T22:54:47;95378.06;;;7.52;100.00
12793;BME280;6460;42.684;23.260;2022-12-29T22:57:17;95385.47;;;7.72;100.00
12793;BME280;6460;42.684;23.260;2022-12-29T22:59:44;95386.09;;;7.69;100.00
12793;BME280;6460;42.684;23.260;2022-12-29T23:02:14;95376.47;;;7.76;100.00
12793;BME280;6460;42.684;23.260;2022-12-29T23:04:55;95381.19;;;7.88;100.00
12793;BME280;6460;42.684;23.260;2022-12-29T23:07:28;95381.50;;;7.78;100.00
12793;BME280;6460;42.684;23.260;2022-12-29T23:10:00;95373.47;;;7.86;100.00
12793;BME280;6460;42.684;23.260;2022-12-29T23:12:33;95377.72;;;7.87;100.00
12793;BME280;6460;42.684;23.260;2022-12-29T23:15:00;95371.72;;;7.82;100.00
12793;BME280;6460;42.684;23.260;2022-12-29T23:17:40;95368.06;;;7.95;100.00
12793;BME280;6460;42.684;23.260;2022-12-29T23:23:53;95375.19;;;7.82;100.00
12793;BME280;6460;42.684;23.260;2022-12-29T23:26:23;95373.78;;;7.76;100.00
12793;BME280;6460;42.684;23.260;2022-12-29T23:28:53;95370.16;;;7.81;100.00
12793;BME280;6460;42.684;23.260;2022-12-29T23:31:22;95364.34;;;7.70;100.00
12793;BME280;6460;42.684;23.260;2022-12-29T23:33:50;95368.75;;;7.83;100.00
12793;BME280;6460;42.684;23.260;2022-12-29T23:36:38;95363.44;;;7.58;100.00
12793;BME280;6460;42.684;23.260;2022-12-29T23:39:43;95370.22;;;7.21;100.00
12793;BME280;6460;42.684;23.260;2022-12-29T23:42:10;95370.50;;;6.85;100.00
12793;BME280;6460;42.684;23.260;2022-12-29T23:44:37;95364.84;;;7.12;100.00
12793;BME280;6460;42.684;23.260;2022-12-29T23:47:04;95365.50;;;7.26;100.00
12793;BME280;6460;42.684;23.260;2022-12-29T23:49:30;95368.78;;;7.40;100.00
12793;BME280;6460;42.684;23.260;2022-12-29T23:51:57;95360.47;;;7.33;100.00
12793;BME280;6460;42.684;23.260;2022-12-29T23:54:24;95358.44;;;7.30;100.00
12793;BME280;6460;42.684;23.260;2022-12-29T23:56:52;95363.44;;;7.49;100.00
12793;BME280;6460;42.684;23.260;2022-12-29T23:59:19;95355.88;;;7.60;100.00
